Time;durP1;ratioP1;P1;durP2;ratioP2;P2;SDS_P1;SDS_P2;PMS_P1;PMS_P2;Temp;Humidity;BMP_temperature;BMP_pressure;BME280_temperature;BME280_humidity;BME280_pressure;Samples;Min_cycle;Max_cycle;Signal;HPM_P1;HPM_P2
2024/04/23 00:02:22;;;;;;;13.18;4.05;;;13.90;79.90;;;;;;5491121;26;19990;-72
2024/04/23 00:04:48;;;;;;;13.80;3.92;;;13.90;79.80;;;;;;5490513;26;20067;-72
2024/04/23 00:07:13;;;;;;;16.23;4.38;;;13.90;79.80;;;;;;5490787;26;20005;-71
2024/04/23 00:09:39;;;;;;;14.00;4.00;;;13.90;79.70;;;;;;5491013;26;19990;-71
2024/04/23 00:12:05;;;;;;;19.08;4.35;;;13.90;79.50;;;;;;5490480;26;19998;-71
2024/04/23 00:14:30;;;;;;;15.82;4.20;;;13.90;79.80;;;;;;5490900;26;20006;-72
2024/04/23 00:17:05;;;;;;;11.75;4.13;;;13.90;80.00;;;;;;5490562;26;19990;-73
2024/04/23 00:19:31;;;;;;;15.77;4.40;;;13.90;80.10;;;;;;5491360;26;20067;-73
2024/04/23 00:21:57;;;;;;;15.32;3.97;;;13.80;79.60;;;;;;5490838;26;20010;-72
2024/04/23 00:24:22;;;;;;;17.27;4.47;;;13.80;79.50;;;;;;5428391;26;19994;-72
2024/04/23 00:26:55;;;;;;;14.82;4.55;;;13.70;79.40;;;;;;5490317;26;20425;-72
2024/04/23 00:29:21;;;;;;;8.93;2.33;;;13.70;79.30;;;;;;5490706;26;20009;-72
2024/04/23 00:31:47;;;;;;;12.55;3.92;;;13.60;79.20;;;;;;5490847;26;19994;-71
2024/04/23 00:34:12;;;;;;;18.67;4.70;;;13.60;79.30;;;;;;5490576;26;20298;-72
2024/04/23 00:36:38;;;;;;;14.35;3.88;;;13.50;79.30;;;;;;5490503;26;20460;-71
2024/04/23 00:39:04;;;;;;;10.80;3.40;;;13.50;79.50;;;;;;5490377;26;19994;-71
2024/04/23 00:41:30;;;;;;;14.10;3.90;;;13.50;79.50;;;;;;5490395;26;20009;-71
2024/04/23 00:43:56;;;;;;;13.00;3.67;;;13.50;79.40;;;;;;5490810;26;20112;-72
2024/04/23 00:46:26;;;;;;;10.55;4.03;;;13.50;79.40;;;;;;5490452;26;20457;-72
2024/04/23 00:48:51;;;;;;;12.15;4.18;;;13.50;79.40;;;;;;5490612;26;20062;-70
2024/04/23 00:51:18;;;;;;;11.60;3.70;;;13.50;79.50;;;;;;5490285;26;20008;-72
2024/04/23 00:53:44;;;;;;;13.10;4.10;;;13.50;79.50;;;;;;5457651;26;19998;-71
2024/04/23 00:56:10;;;;;;;11.77;3.88;;;13.50;79.40;;;;;;5490292;26;20005;-72
2024/04/23 00:58:37;;;;;;;11.73;3.65;;;13.50;79.50;;;;;;5489562;26;20465;-72
2024/04/23 01:01:04;;;;;;;14.48;4.00;;;13.50;79.50;;;;;;5490627;26;19994;-71
2024/04/23 01:03:30;;;;;;;15.48;3.80;;;13.50;79.50;;;;;;5490609;26;19998;-71
2024/04/23 01:05:56;;;;;;;12.18;3.85;;;13.50;79.50;;;;;;5490260;26;19997;-73
2024/04/23 01:08:21;;;;;;;12.82;3.28;;;13.40;79.60;;;;;;5489930;26;20029;-72
2024/04/23 01:10:47;;;;;;;11.82;3.10;;;13.40;79.50;;;;;;5490423;26;20407;-71
2024/04/23 01:13:13;;;;;;;16.92;4.18;;;13.40;79.50;;;;;;5489330;26;19998;-73
2024/04/23 01:15:41;;;;;;;11.40;3.17;;;13.40;79.40;;;;;;5489702;26;20074;-72
2024/04/23 01:18:07;;;;;;;10.15;3.00;;;13.40;79.20;;;;;;5489569;26;20121;-71
2024/04/23 01:20:33;;;;;;;12.23;3.40;;;13.40;78.90;;;;;;5489214;26;20490;-72
2024/04/23 01:23:17;;;;;;;10.50;3.05;;;13.50;78.70;;;;;;5489407;26;19994;-72
2024/04/23 01:25:45;;;;;;;12.05;3.03;;;13.50;78.40;;;;;;5489487;26;20398;-70
2024/04/23 01:28:14;;;;;;;15.75;3.53;;;13.50;78.10;;;;;;5489650;26;20411;-71
2024/04/23 01:30:41;;;;;;;12.25;3.38;;;13.50;78.20;;;;;;5489357;26;20194;-71
2024/04/23 01:33:09;;;;;;;15.93;3.05;;;13.40;78.10;;;;;;5489251;26;19997;-71
2024/04/23 01:35:35;;;;;;;11.68;2.53;;;13.40;77.90;;;;;;5489247;26;19998;-71
2024/04/23 01:38:01;;;;;;;12.45;2.80;;;13.40;77.80;;;;;;5489305;26;20005;-71
2024/04/23 01:40:28;;;;;;;10.00;2.67;;;13.40;77.70;;;;;;5489033;26;19998;-70
2024/04/23 01:42:55;;;;;;;14.13;3.17;;;13.40;77.50;;;;;;5488909;26;20009;-71
2024/04/23 01:45:21;;;;;;;16.02;2.83;;;13.40;77.30;;;;;;5489158;26;20375;-71
2024/04/23 01:47:47;;;;;;;16.63;2.70;;;13.50;77.30;;;;;;5489019;26;20066;-72
2024/04/23 01:50:14;;;;;;;10.88;2.17;;;13.50;77.00;;;;;;5488626;26;20010;-74
2024/04/23 01:52:40;;;;;;;14.80;2.50;;;13.50;76.60;;;;;;5489005;26;19994;-71
2024/04/23 01:55:07;;;;;;;9.52;2.42;;;13.50;76.60;;;;;;5488851;26;20329;-70
2024/04/23 01:57:33;;;;;;;9.60;2.13;;;13.60;76.50;;;;;;5488860;26;20008;-71
2024/04/23 02:00:10;;;;;;;13.93;2.53;;;13.60;76.30;;;;;;5488892;26;19998;-71
2024/04/23 02:02:38;;;;;;;10.27;2.13;;;13.60;76.30;;;;;;5488784;26;20418;-71
2024/04/23 02:05:06;;;;;;;9.02;1.88;;;13.60;76.00;;;;;;5488874;26;20069;-73
2024/04/23 02:07:32;;;;;;;12.00;2.67;;;13.70;75.90;;;;;;5488946;26;20137;-71
2024/04/23 02:09:59;;;;;;;8.50;2.40;;;13.70;75.80;;;;;;5488679;26;20441;-71
2024/04/23 02:12:24;;;;;;;9.35;2.50;;;13.70;75.70;;;;;;5488717;26;20002;-73
2024/04/23 02:14:50;;;;;;;12.48;2.38;;;13.70;75.60;;;;;;5488268;26;20440;-72
2024/04/23 02:17:17;;;;;;;12.02;2.45;;;13.70;75.40;;;;;;5488668;26;20006;-72
2024/04/23 02:19:44;;;;;;;6.40;1.90;;;13.70;75.20;;;;;;5488365;26;20077;-71
2024/04/23 02:22:10;;;;;;;9.48;2.00;;;13.60;75.10;;;;;;5488620;26;19994;-71
2024/04/23 02:24:36;;;;;;;11.52;2.45;;;13.60;75.10;;;;;;5488375;26;20091;-72
2024/04/23 02:27:02;;;;;;;12.32;2.40;;;13.60;75.30;;;;;;5488580;26;20005;-71
2024/04/23 02:29:28;;;;;;;11.32;2.22;;;13.60;74.90;;;;;;5488429;26;20002;-72
2024/04/23 02:31:57;;;;;;;8.50;2.17;;;13.60;74.90;;;;;;5456134;26;19999;-72
2024/04/23 02:34:23;;;;;;;10.63;2.38;;;13.60;75.00;;;;;;5488565;26;19998;-71
2024/04/23 02:36:49;;;;;;;8.88;2.03;;;13.50;75.00;;;;;;5488623;26;20013;-71
2024/04/23 02:39:14;;;;;;;7.53;2.20;;;13.50;75.00;;;;;;5488216;26;20013;-72
2024/04/23 02:41:51;;;;;;;9.38;2.53;;;13.50;75.00;;;;;;5488508;26;20002;-71
2024/04/23 02:44:16;;;;;;;10.63;2.15;;;13.50;74.90;;;;;;5473331;26;20005;-71
2024/04/23 02:46:42;;;;;;;11.10;2.22;;;13.50;74.90;;;;;;5488413;26;19994;-70
2024/04/23 02:49:08;;;;;;;9.60;2.50;;;13.50;74.90;;;;;;5487954;26;20005;-71
2024/04/23 02:51:34;;;;;;;7.75;1.95;;;13.50;74.90;;;;;;5487754;26;20557;-72
2024/04/23 02:53:59;;;;;;;9.82;2.53;;;13.50;74.70;;;;;;5488179;26;20370;-71
2024/04/23 02:56:25;;;;;;;9.95;2.33;;;13.40;74.80;;;;;;5488181;26;20402;-72
2024/04/23 02:58:51;;;;;;;8.55;2.13;;;13.40;75.00;;;;;;5487862;26;20009;-71
2024/04/23 03:01:17;;;;;;;9.80;2.20;;;13.30;74.90;;;;;;5487869;26;20117;-71
2024/04/23 03:03:43;;;;;;;13.63;2.20;;;13.20;75.00;;;;;;5487631;26;20116;-71
2024/04/23 03:06:08;;;;;;;8.93;1.85;;;13.20;75.20;;;;;;5455574;26;20374;-70
2024/04/23 03:08:34;;;;;;;11.95;2.22;;;13.20;75.30;;;;;;5487490;26;19990;-71
2024/04/23 03:11:00;;;;;;;7.82;2.25;;;13.10;75.30;;;;;;5487499;26;19998;-71
2024/04/23 03:13:25;;;;;;;11.63;2.17;;;13.10;75.20;;;;;;5487562;26;20005;-72
2024/04/23 03:15:51;;;;;;;8.93;1.90;;;13.10;75.40;;;;;;5455395;26;20071;-71
2024/04/23 03:18:16;;;;;;;18.75;2.33;;;13.00;75.30;;;;;;5488515;26;19990;-72
2024/04/23 03:20:42;;;;;;;7.50;1.85;;;13.00;75.60;;;;;;5488436;26;19994;-71
2024/04/23 03:23:08;;;;;;;13.18;2.45;;;13.00;75.70;;;;;;5495711;26;19995;-71
2024/04/23 03:25:33;;;;;;;14.30;2.65;;;13.00;75.80;;;;;;5495283;26;20022;-73
2024/04/23 03:27:59;;;;;;;12.07;2.03;;;13.00;75.80;;;;;;5494882;26;19998;-70
2024/04/23 03:30:25;;;;;;;8.75;2.50;;;12.90;75.90;;;;;;5495383;26;20009;-71
2024/04/23 03:32:50;;;;;;;9.77;2.67;;;12.90;75.80;;;;;;5495220;26;20081;-71
2024/04/23 03:35:16;;;;;;;9.75;2.03;;;12.90;75.80;;;;;;5495048;26;19994;-71
2024/04/23 03:37:41;;;;;;;8.93;1.95;;;12.90;76.00;;;;;;5495015;26;20120;-71
2024/04/23 03:40:08;;;;;;;12.85;2.83;;;12.90;76.00;;;;;;5495564;26;19995;-71
2024/04/23 03:42:33;;;;;;;9.30;2.30;;;12.90;76.00;;;;;;5494708;26;19998;-71
2024/04/23 03:44:59;;;;;;;13.20;2.47;;;12.90;75.90;;;;;;5495123;26;20070;-71
2024/04/23 03:47:25;;;;;;;9.50;2.22;;;12.90;75.90;;;;;;5495290;26;20436;-71
2024/04/23 03:49:50;;;;;;;12.27;2.78;;;13.00;76.00;;;;;;5494750;26;19994;-71
2024/04/23 03:52:17;;;;;;;11.32;2.50;;;13.00;76.00;;;;;;5494974;26;19998;-72
2024/04/23 03:54:44;;;;;;;11.70;2.35;;;13.00;75.90;;;;;;5494608;26;20005;-71
2024/04/23 03:57:10;;;;;;;11.40;2.47;;;13.00;75.80;;;;;;5462423;26;20038;-71
2024/04/23 03:59:36;;;;;;;10.27;3.25;;;13.00;75.70;;;;;;5494698;26;20005;-72
2024/04/23 04:07:30;;;;;;;;;;;13.10;75.70;;;;;;5495615;26;20070;-71
2024/04/23 04:09:56;;;;;;;11.38;2.30;;;13.10;75.70;;;;;;5495536;26;19935;-72
2024/04/23 04:12:21;;;;;;;11.52;2.05;;;13.10;75.50;;;;;;5494868;26;20036;-70
2024/04/23 04:14:47;;;;;;;10.68;2.83;;;13.10;75.40;;;;;;5494652;26;19990;-71
2024/04/23 04:17:13;;;;;;;10.55;2.85;;;13.10;75.30;;;;;;5494831;26;19998;-71
2024/04/23 04:19:40;;;;;;;10.90;2.33;;;13.10;75.10;;;;;;5494644;26;19998;-71
2024/04/23 04:22:06;;;;;;;12.45;2.15;;;13.10;75.10;;;;;;5494428;26;20311;-71
2024/04/23 04:24:32;;;;;;;20.25;3.05;;;13.10;75.00;;;;;;5461737;26;19998;-71
2024/04/23 04:26:57;;;;;;;11.90;2.33;;;13.10;74.80;;;;;;5494448;26;19994;-70
2024/04/23 04:29:23;;;;;;;9.50;2.47;;;13.10;74.70;;;;;;5494056;26;20005;-71
2024/04/23 04:31:49;;;;;;;9.57;1.88;;;13.10;74.70;;;;;;5461553;26;19997;-70
2024/04/23 04:34:14;;;;;;;12.15;2.35;;;13.10;74.50;;;;;;5489159;26;20001;-73
2024/04/23 04:36:40;;;;;;;9.32;2.25;;;13.10;74.50;;;;;;5489939;26;19990;-72
2024/04/23 04:39:05;;;;;;;11.35;2.40;;;13.20;74.60;;;;;;5489875;26;19998;-72
2024/04/23 04:41:31;;;;;;;10.88;2.58;;;13.30;74.50;;;;;;5489766;26;20663;-71
2024/04/23 04:43:57;;;;;;;12.57;2.60;;;13.30;74.30;;;;;;5489732;26;20438;-71
2024/04/23 04:46:22;;;;;;;11.75;2.55;;;13.30;74.20;;;;;;5489983;26;20062;-71
2024/04/23 04:48:48;;;;;;;11.15;1.90;;;13.40;74.10;;;;;;5490024;26;19990;-73
2024/04/23 04:51:14;;;;;;;14.88;2.40;;;13.40;74.10;;;;;;5490102;26;20417;-72
2024/04/23 04:53:39;;;;;;;11.48;2.95;;;13.40;74.00;;;;;;5458130;26;20028;-69
2024/04/23 04:56:05;;;;;;;15.30;2.65;;;13.40;73.90;;;;;;5490031;26;20030;-71
2024/04/23 04:58:31;;;;;;;14.93;3.38;;;13.40;73.90;;;;;;5457843;26;19994;-72
2024/04/23 05:00:57;;;;;;;19.30;2.50;;;13.40;73.70;;;;;;5490094;26;19990;-72
2024/04/23 05:03:23;;;;;;;9.18;2.58;;;13.40;73.50;;;;;;5489539;26;20451;-72
2024/04/23 05:05:48;;;;;;;12.65;2.70;;;13.40;73.50;;;;;;5488952;26;19994;-72
2024/04/23 05:08:14;;;;;;;14.45;2.83;;;13.40;73.50;;;;;;5489327;26;19990;-72
2024/04/23 05:10:41;;;;;;;7.82;2.60;;;13.50;73.70;;;;;;5489773;26;19990;-73
2024/04/23 05:13:07;;;;;;;11.73;2.83;;;13.50;73.50;;;;;;5489326;26;19990;-74
2024/04/23 05:15:32;;;;;;;12.75;2.70;;;13.50;73.10;;;;;;5489425;26;19994;-73
2024/04/23 05:17:58;;;;;;;18.02;2.80;;;13.50;73.00;;;;;;5457371;26;20006;-73
2024/04/23 05:20:24;;;;;;;15.57;3.85;;;13.50;72.90;;;;;;5490013;26;20005;-71
2024/04/23 05:22:49;;;;;;;15.55;2.97;;;13.60;72.80;;;;;;5489588;26;19998;-73
2024/04/23 05:25:15;;;;;;;15.73;2.58;;;13.60;72.70;;;;;;5489690;26;20363;-72
2024/04/23 05:27:41;;;;;;;13.02;2.90;;;13.70;72.30;;;;;;5489394;26;20005;-71
2024/04/23 05:30:07;;;;;;;11.73;2.78;;;13.80;72.20;;;;;;5489476;26;20338;-72
2024/04/23 05:32:48;;;;;;;17.15;3.15;;;13.90;71.90;;;;;;5489717;26;20062;-70
2024/04/23 05:35:13;;;;;;;10.07;3.08;;;14.00;71.50;;;;;;5489415;26;19994;-72
2024/04/23 05:37:39;;;;;;;16.65;3.08;;;14.10;71.00;;;;;;5489236;26;20005;-73
2024/04/23 05:40:07;;;;;;;14.88;3.05;;;14.20;70.70;;;;;;5489033;26;19998;-73
2024/04/23 05:42:33;;;;;;;16.17;3.38;;;14.30;70.50;;;;;;5456835;26;20000;-72
2024/04/23 05:44:59;;;;;;;15.80;2.97;;;14.40;70.10;;;;;;5489086;26;19998;-72
2024/04/23 05:47:25;;;;;;;17.67;3.25;;;14.40;70.00;;;;;;5488815;26;20009;-72
2024/04/23 05:50:28;;;;;;;12.32;3.25;;;14.50;70.00;;;;;;5489506;26;20328;-72
2024/04/23 05:53:31;;;;;;;9.77;2.80;;;14.50;70.00;;;;;;5489155;26;20364;-72
2024/04/23 05:55:57;;;;;;;20.23;3.25;;;14.70;69.50;;;;;;5456339;26;20418;-72
2024/04/23 05:58:23;;;;;;;17.10;4.05;;;14.90;68.60;;;;;;5488512;26;20062;-72
2024/04/23 06:00:48;;;;;;;13.85;3.20;;;15.30;67.80;;;;;;5489413;26;19990;-73
2024/04/23 06:03:14;;;;;;;16.65;5.00;;;15.70;66.30;;;;;;5489667;26;20323;-73
2024/04/23 06:05:39;;;;;;;13.20;5.22;;;16.30;65.50;;;;;;5489494;26;19994;-73
2024/04/23 06:08:05;;;;;;;14.82;3.78;;;17.50;63.20;;;;;;5457489;26;20005;-71
2024/04/23 06:10:31;;;;;;;14.85;4.03;;;18.90;60.70;;;;;;5489054;26;19997;-73
2024/04/23 06:12:57;;;;;;;13.07;3.38;;;20.20;58.10;;;;;;5488936;26;20013;-73
2024/04/23 06:15:23;;;;;;;13.82;3.47;;;20.40;56.10;;;;;;5489151;26;20010;-73
2024/04/23 06:17:48;;;;;;;14.82;3.15;;;20.10;55.00;;;;;;5489155;26;20442;-73
2024/04/23 06:20:14;;;;;;;15.05;3.88;;;19.10;56.30;;;;;;5488616;26;20345;-73
2024/04/23 06:22:40;;;;;;;14.20;3.05;;;18.20;57.70;;;;;;5489309;26;19994;-72
2024/04/23 06:25:07;;;;;;;10.13;3.03;;;17.60;59.20;;;;;;5488655;26;20008;-72
2024/04/23 06:27:36;;;;;;;13.02;3.03;;;17.10;60.00;;;;;;5488410;26;20334;-72
2024/04/23 06:30:09;;;;;;;17.20;3.33;;;16.70;60.20;;;;;;5488721;26;19998;-72
2024/04/23 06:32:36;;;;;;;16.92;3.10;;;16.40;61.00;;;;;;5488731;26;19998;-73
2024/04/23 06:35:03;;;;;;;14.13;2.92;;;16.30;61.30;;;;;;5490308;26;20011;-73
2024/04/23 06:37:28;;;;;;;12.18;2.70;;;16.20;61.60;;;;;;5488156;26;20009;-72
2024/04/23 06:39:54;;;;;;;13.45;3.20;;;16.00;61.40;;;;;;5488217;26;20431;-72
2024/04/23 06:42:20;;;;;;;11.95;2.92;;;16.00;61.50;;;;;;5488205;26;20001;-73
2024/04/23 06:44:45;;;;;;;15.57;2.70;;;16.40;61.20;;;;;;5488501;26;20338;-72
2024/04/23 06:47:11;;;;;;;17.52;3.15;;;16.90;60.40;;;;;;5488126;26;19998;-72
2024/04/23 06:49:37;;;;;;;16.73;3.60;;;17.80;59.00;;;;;;5488638;26;20001;-73
2024/04/23 06:52:03;;;;;;;14.48;3.50;;;18.70;57.60;;;;;;5487458;26;19998;-72
2024/04/23 06:54:30;;;;;;;12.85;3.03;;;18.70;56.60;;;;;;5487538;26;20001;-73
2024/04/23 06:56:56;;;;;;;12.50;2.55;;;18.70;56.20;;;;;;5486353;26;20039;-72
2024/04/23 06:59:22;;;;;;;12.88;2.92;;;18.50;56.20;;;;;;5487473;26;19998;-72
2024/04/23 07:01:47;;;;;;;12.55;3.10;;;18.30;56.50;;;;;;5487452;26;20444;-73
2024/04/23 07:04:13;;;;;;;22.45;3.40;;;18.10;56.80;;;;;;5487663;26;20006;-72
2024/04/23 07:06:39;;;;;;;14.50;2.47;;;17.80;57.70;;;;;;5486986;26;20122;-74
2024/04/23 07:09:06;;;;;;;16.85;2.65;;;17.70;57.80;;;;;;5487561;26;20078;-72
2024/04/23 07:11:32;;;;;;;15.57;2.92;;;17.80;57.40;;;;;;5487819;26;19994;-74
2024/04/23 07:13:58;;;;;;;17.10;3.25;;;18.30;56.40;;;;;;5487515;26;20512;-73
2024/04/23 07:16:23;;;;;;;12.23;2.60;;;19.20;54.20;;;;;;5487587;26;19994;-72
2024/04/23 07:18:49;;;;;;;12.73;2.63;;;19.80;53.30;;;;;;5487784;26;19998;-73
2024/04/23 07:21:15;;;;;;;12.25;2.28;;;21.10;51.90;;;;;;5487979;26;20002;-72
2024/04/23 07:23:40;;;;;;;10.45;2.33;;;22.20;50.00;;;;;;5456122;26;20020;-73
2024/04/23 07:26:06;;;;;;;13.32;2.88;;;22.60;48.10;;;;;;5487283;26;20006;-72
2024/04/23 07:28:31;;;;;;;9.95;2.63;;;22.00;48.30;;;;;;5486591;26;20298;-72
2024/04/23 07:31:00;;;;;;;11.07;2.20;;;21.30;48.60;;;;;;5487307;26;19995;-73
2024/04/23 07:33:25;;;;;;;10.07;2.08;;;20.70;49.00;;;;;;5486853;26;20001;-73
2024/04/23 07:35:51;;;;;;;11.55;2.40;;;20.30;49.40;;;;;;5487232;26;20009;-73
2024/04/23 07:38:17;;;;;;;10.35;1.98;;;20.00;50.00;;;;;;5487022;26;19998;-73
2024/04/23 07:40:44;;;;;;;11.38;2.33;;;19.80;50.00;;;;;;5455057;26;20009;-74
2024/04/23 07:43:10;;;;;;;6.95;1.92;;;19.60;50.00;;;;;;5487612;26;19994;-73
2024/04/23 07:45:36;;;;;;;7.60;2.10;;;19.40;49.80;;;;;;5487101;26;19998;-72
2024/04/23 07:48:02;;;;;;;7.70;2.10;;;19.30;50.20;;;;;;5487031;26;20469;-73
2024/04/23 07:50:28;;;;;;;11.35;2.30;;;19.20;50.00;;;;;;5486924;26;20124;-74
2024/04/23 07:52:54;;;;;;;7.85;2.47;;;19.10;49.60;;;;;;5487892;26;20005;-73
2024/04/23 07:55:20;;;;;;;10.77;2.40;;;19.00;49.90;;;;;;5487715;26;20004;-72
2024/04/23 07:57:47;;;;;;;8.20;2.40;;;19.10;49.90;;;;;;5487369;26;20344;-72
2024/04/23 08:00:15;;;;;;;9.57;2.40;;;18.90;49.50;;;;;;5487538;26;20338;-73
2024/04/23 08:02:43;;;;;;;9.27;2.30;;;18.90;49.80;;;;;;5487145;26;19994;-73
2024/04/23 08:05:09;;;;;;;8.93;2.53;;;19.00;49.70;;;;;;5487026;26;20094;-73
2024/04/23 08:07:35;;;;;;;12.75;2.45;;;19.10;49.70;;;;;;5488126;26;20002;-72
2024/04/23 08:10:01;;;;;;;11.75;2.40;;;19.00;49.30;;;;;;5458448;26;19994;-74
2024/04/23 08:12:27;;;;;;;14.75;2.40;;;18.90;49.30;;;;;;5458562;26;20002;-73
2024/04/23 08:14:55;;;;;;;7.72;1.98;;;18.80;49.10;;;;;;5458300;26;20330;-74
2024/04/23 08:17:22;;;;;;;9.73;2.17;;;18.80;49.60;;;;;;5490363;26;20446;-72
2024/04/23 08:19:48;;;;;;;11.20;2.47;;;18.70;49.30;;;;;;5490215;26;20005;-73
2024/04/23 08:22:13;;;;;;;6.90;1.98;;;18.60;48.90;;;;;;5490513;26;19994;-72
2024/04/23 08:24:39;;;;;;;12.30;2.40;;;18.50;48.80;;;;;;5490175;26;20006;-73
2024/04/23 08:27:04;;;;;;;8.43;2.08;;;18.40;48.30;;;;;;5490167;26;20063;-73
2024/04/23 08:29:31;;;;;;;6.10;1.77;;;18.30;48.00;;;;;;5490087;26;19998;-71
2024/04/23 08:31:57;;;;;;;14.90;2.30;;;18.30;47.50;;;;;;5490302;26;20022;-73
2024/04/23 08:34:23;;;;;;;8.82;2.22;;;18.30;47.70;;;;;;5489820;26;19994;-72
2024/04/23 08:36:48;;;;;;;8.35;2.42;;;18.40;47.40;;;;;;5457908;26;20414;-72
2024/04/23 08:39:14;;;;;;;7.82;2.00;;;18.50;47.50;;;;;;5490366;26;20013;-72
2024/04/23 08:41:43;;;;;;;8.70;1.83;;;18.60;47.50;;;;;;5489630;26;19994;-73
2024/04/23 08:44:11;;;;;;;13.13;2.40;;;18.60;47.70;;;;;;5489203;26;19994;-74
2024/04/23 08:46:39;;;;;;;9.48;2.30;;;18.50;47.90;;;;;;5490196;26;20014;-73
2024/04/23 08:49:10;;;;;;;9.02;2.17;;;18.50;47.90;;;;;;5490189;26;20095;-73
2024/04/23 08:51:36;;;;;;;8.60;2.15;;;18.40;48.20;;;;;;5489825;26;20002;-74
2024/04/23 08:54:04;;;;;;;12.25;3.00;;;18.30;48.50;;;;;;5490030;26;20066;-73
2024/04/23 08:56:31;;;;;;;12.38;2.30;;;18.20;48.70;;;;;;5490052;26;20039;-75
2024/04/23 08:58:57;;;;;;;11.15;2.20;;;18.10;48.80;;;;;;5457520;26;19994;-73
2024/04/23 09:01:40;;;;;;;12.60;2.65;;;17.90;49.00;;;;;;5457374;26;20004;-72
2024/04/23 09:04:06;;;;;;;10.15;2.30;;;17.90;49.50;;;;;;5490010;26;20008;-72
2024/04/23 09:06:38;;;;;;;9.95;2.35;;;17.80;49.60;;;;;;5489341;26;20031;-72
2024/04/23 09:09:05;;;;;;;9.35;2.40;;;17.80;49.60;;;;;;5457250;26;19994;-73
2024/04/23 09:11:33;;;;;;;10.85;2.65;;;18.00;49.40;;;;;;5489843;26;20010;-73
2024/04/23 09:13:59;;;;;;;9.70;1.98;;;18.00;49.20;;;;;;5489787;26;19998;-72
2024/04/23 09:16:26;;;;;;;10.38;2.00;;;18.00;48.80;;;;;;5489488;26;19998;-72
2024/04/23 09:18:55;;;;;;;13.57;2.45;;;18.00;48.70;;;;;;5489202;26;19994;-73
2024/04/23 09:21:22;;;;;;;13.70;2.90;;;18.00;49.40;;;;;;5489886;26;20005;-73
2024/04/23 09:23:47;;;;;;;12.05;2.22;;;18.00;49.00;;;;;;5489839;26;20434;-73
2024/04/23 09:26:13;;;;;;;11.85;2.95;;;18.20;48.90;;;;;;5489553;26;20009;-72
2024/04/23 09:28:46;;;;;;;9.25;2.20;;;18.30;48.60;;;;;;5489127;26;20406;-73
2024/04/23 09:31:15;;;;;;;8.55;2.10;;;18.30;48.30;;;;;;5490188;26;20317;-73
2024/04/23 09:34:03;;;;;;;6.38;1.75;;;18.40;48.40;;;;;;5489169;26;20002;-73
2024/04/23 09:36:31;;;;;;;7.90;1.67;;;18.40;47.80;;;;;;5489815;26;20521;-73
2024/04/23 09:38:58;;;;;;;8.25;1.95;;;18.40;47.80;;;;;;5489683;26;19995;-73
2024/04/23 09:41:26;;;;;;;8.40;2.13;;;18.40;47.50;;;;;;5489623;26;20450;-73
2024/04/23 09:43:59;;;;;;;7.40;2.15;;;18.20;47.50;;;;;;5489362;26;20005;-72
2024/04/23 09:46:30;;;;;;;7.63;2.10;;;18.10;48.00;;;;;;5489128;26;20012;-73
2024/04/23 09:48:59;;;;;;;14.35;2.35;;;18.10;48.20;;;;;;5489383;26;19998;-72
2024/04/23 09:51:29;;;;;;;10.68;2.28;;;18.00;48.50;;;;;;5489024;26;19994;-72
2024/04/23 09:53:59;;;;;;;13.77;2.13;;;17.90;49.10;;;;;;5488506;26;19998;-73
2024/04/23 09:56:25;;;;;;;11.48;2.22;;;17.80;49.60;;;;;;5488703;26;20006;-73
2024/04/23 09:58:50;;;;;;;10.82;2.40;;;17.70;50.00;;;;;;5488991;26;19998;-74
2024/04/23 10:01:21;;;;;;;11.50;3.45;;;17.70;50.10;;;;;;5489210;26;20135;-73
2024/04/23 10:03:50;;;;;;;14.45;5.53;;;18.00;50.10;;;;;;5488844;26;19998;-73
2024/04/23 10:06:23;;;;;;;11.10;2.88;;;18.10;49.90;;;;;;5489066;26;19998;-73
2024/04/23 10:09:06;;;;;;;8.55;2.20;;;18.40;49.70;;;;;;5489855;26;20022;-75
2024/04/23 10:11:45;;;;;;;15.27;2.60;;;18.50;49.30;;;;;;5446404;26;20450;-73
2024/04/23 10:14:22;;;;;;;10.88;1.90;;;18.50;49.70;;;;;;5489511;26;20022;-72
2024/04/23 10:17:37;;;;;;;9.02;2.15;;;18.50;48.90;;;;;;5490190;26;20003;-74
2024/04/23 10:20:07;;;;;;;12.25;2.00;;;18.70;49.20;;;;;;5489039;26;19998;-72
2024/04/23 10:22:33;;;;;;;7.97;1.98;;;18.80;49.10;;;;;;5456632;26;19994;-72
2024/04/23 10:24:59;;;;;;;6.82;1.80;;;18.50;49.50;;;;;;5456600;26;20054;-74
2024/04/23 10:27:26;;;;;;;8.55;1.75;;;18.20;50.00;;;;;;5489284;26;20497;-73
2024/04/23 10:29:54;;;;;;;12.25;2.00;;;18.00;50.50;;;;;;5488826;26;20087;-72
2024/04/23 10:32:21;;;;;;;10.10;2.63;;;18.00;50.80;;;;;;5455265;26;19998;-74
2024/04/23 10:34:48;;;;;;;12.65;2.60;;;18.10;50.80;;;;;;5488861;26;20358;-74
2024/04/23 10:37:19;;;;;;;10.02;1.92;;;18.10;50.90;;;;;;5488978;26;20009;-72
2024/04/23 10:39:46;;;;;;;8.35;2.10;;;18.10;50.40;;;;;;5489182;26;19998;-74
2024/04/23 10:42:14;;;;;;;9.88;2.00;;;18.10;50.10;;;;;;5489367;26;20026;-72
2024/04/23 10:44:43;;;;;;;11.50;2.00;;;18.00;50.00;;;;;;5488787;26;19994;-72
2024/04/23 10:47:09;;;;;;;7.10;2.15;;;17.90;50.20;;;;;;5488979;26;19990;-73
2024/04/23 10:49:37;;;;;;;5.65;1.83;;;17.80;50.10;;;;;;5488614;26;19994;-73
2024/04/23 10:52:04;;;;;;;6.57;1.35;;;17.70;49.80;;;;;;5489450;26;19998;-73
2024/04/23 10:54:32;;;;;;;6.25;1.50;;;17.60;49.60;;;;;;5489089;26;20006;-74
2024/04/23 10:57:04;;;;;;;6.75;1.63;;;17.50;49.50;;;;;;5489343;26;20030;-74
2024/04/23 10:59:31;;;;;;;8.05;1.45;;;17.60;49.60;;;;;;5488623;26;20436;-74
2024/04/23 11:02:01;;;;;;;7.00;1.70;;;17.70;49.80;;;;;;5488537;26;20070;-73
2024/04/23 11:04:46;;;;;;;8.48;1.52;;;17.80;50.10;;;;;;5488792;26;20001;-73
2024/04/23 11:07:27;;;;;;;6.20;1.52;;;17.70;49.70;;;;;;5489025;26;19994;-73
2024/04/23 11:10:00;;;;;;;4.70;1.40;;;17.80;50.00;;;;;;5489617;26;19994;-71
2024/04/23 11:12:26;;;;;;;6.20;1.60;;;17.80;49.60;;;;;;5489021;26;20071;-73
2024/04/23 11:14:58;;;;;;;5.13;1.10;;;17.80;49.40;;;;;;5427224;26;19994;-74
2024/04/23 11:17:24;;;;;;;7.15;1.23;;;18.00;49.60;;;;;;5457135;26;20427;-73
2024/04/23 11:19:52;;;;;;;4.13;1.17;;;18.00;49.30;;;;;;5489324;26;20009;-73
2024/04/23 11:22:34;;;;;;;5.18;1.40;;;18.00;49.50;;;;;;5474029;26;19991;-72
2024/04/23 11:25:04;;;;;;;6.07;1.40;;;17.90;49.80;;;;;;5488079;26;19994;-73
2024/04/23 11:27:30;;;;;;;7.15;1.58;;;17.90;50.30;;;;;;5488306;26;20449;-72
2024/04/23 11:29:56;;;;;;;9.98;1.70;;;17.90;50.70;;;;;;5455810;26;20442;-73
2024/04/23 11:32:22;;;;;;;6.93;1.45;;;17.90;51.10;;;;;;5487934;26;20417;-72
2024/04/23 11:34:48;;;;;;;6.57;1.20;;;18.00;50.90;;;;;;5488167;26;19994;-73
2024/04/23 11:37:40;;;;;;;8.15;1.30;;;18.00;50.50;;;;;;5488290;26;20438;-74
2024/04/23 11:40:07;;;;;;;5.72;1.35;;;17.90;49.50;;;;;;5483295;26;19997;-73
2024/04/23 11:42:33;;;;;;;6.72;1.40;;;18.00;49.70;;;;;;5490178;26;19990;-74
2024/04/23 11:45:00;;;;;;;7.47;1.70;;;18.20;49.50;;;;;;5491620;26;20028;-74
2024/04/23 11:47:27;;;;;;;6.43;1.60;;;18.30;49.80;;;;;;5492081;26;19994;-74
2024/04/23 11:49:53;;;;;;;8.35;1.70;;;18.40;50.10;;;;;;5492003;26;20001;-73
2024/04/23 11:52:23;;;;;;;10.35;1.70;;;18.20;50.10;;;;;;5491478;26;20005;-73
2024/04/23 11:54:50;;;;;;;8.13;1.85;;;18.10;50.40;;;;;;5491403;26;20446;-74
2024/04/23 11:57:18;;;;;;;6.60;1.73;;;18.10;50.40;;;;;;5491571;26;20009;-75
2024/04/23 11:59:49;;;;;;;8.80;1.55;;;18.20;50.60;;;;;;5491100;26;20043;-74
2024/04/23 12:02:15;;;;;;;4.28;1.35;;;18.00;50.40;;;;;;5491079;26;20009;-74
2024/04/23 12:04:42;;;;;;;5.13;1.40;;;17.80;49.80;;;;;;5491644;26;20023;-73
2024/04/23 12:07:10;;;;;;;6.15;1.50;;;17.70;49.30;;;;;;5491280;26;20088;-73
2024/04/23 12:09:36;;;;;;;9.50;1.63;;;17.90;49.20;;;;;;5458506;26;20000;-74
2024/04/23 12:12:01;;;;;;;8.88;1.60;;;18.10;49.30;;;;;;5491584;26;19998;-73
2024/04/23 12:14:28;;;;;;;5.50;1.48;;;18.20;49.40;;;;;;5491264;26;20009;-75
2024/04/23 12:16:54;;;;;;;7.15;1.65;;;18.20;48.30;;;;;;5490962;26;20079;-73
2024/04/23 12:19:20;;;;;;;6.05;1.35;;;18.40;48.10;;;;;;5491243;26;20005;-74
2024/04/23 12:21:46;;;;;;;7.55;1.58;;;18.50;48.30;;;;;;5491293;26;20013;-73
2024/04/23 12:24:18;;;;;;;9.60;1.50;;;18.40;48.70;;;;;;5491127;26;19997;-73
2024/04/23 12:26:44;;;;;;;6.75;1.58;;;18.20;49.10;;;;;;5490337;26;20403;-72
2024/04/23 12:29:10;;;;;;;4.70;1.48;;;18.00;49.90;;;;;;5490634;26;20001;-73
2024/04/23 12:31:36;;;;;;;10.10;1.77;;;17.80;50.40;;;;;;5490818;26;20009;-74
2024/04/23 12:34:02;;;;;;;12.45;2.08;;;17.50;51.60;;;;;;5490875;26;20034;-73
2024/04/23 12:36:28;;;;;;;4.90;1.40;;;17.30;52.70;;;;;;5491173;26;19998;-73
2024/04/23 12:38:54;;;;;;;7.97;1.65;;;17.10;53.00;;;;;;5490917;26;20008;-74
2024/04/23 12:41:25;;;;;;;8.40;2.20;;;17.00;53.20;;;;;;5458216;26;20065;-74
2024/04/23 12:43:51;;;;;;;8.43;2.20;;;17.00;53.40;;;;;;5490991;26;19994;-73
2024/04/23 12:46:18;;;;;;;8.23;2.38;;;17.00;53.80;;;;;;5475388;26;19994;-73
2024/04/23 12:48:46;;;;;;;8.77;2.20;;;17.30;53.50;;;;;;5490551;26;20074;-73